sensor_id;sensor_type;location;lat;lon;timestamp;temperature;humidity
66962;HTU21D;53897;51.126;5.868;2023-04-06T00:01:52;23.11;38.43
66962;HTU21D;53897;51.126;5.868;2023-04-06T00:04:18;23.09;38.40
66962;HTU21D;53897;51.126;5.868;2023-04-06T00:06:43;23.07;38.39
66962;HTU21D;53897;51.126;5.868;2023-04-06T00:09:09;23.07;38.37
66962;HTU21D;53897;51.126;5.868;2023-04-06T00:11:35;23.03;38.36
66962;HTU21D;53897;51.126;5.868;2023-04-06T00:14:00;23.02;38.33
66962;HTU21D;53897;51.126;5.868;2023-04-06T00:16:26;23.01;38.32
66962;HTU21D;53897;51.126;5.868;2023-04-06T00:18:52;23.00;38.31
66962;HTU21D;53897;51.126;5.868;2023-04-06T00:21:17;22.99;38.31
66962;HTU21D;53897;51.126;5.868;2023-04-06T00:23:43;22.97;38.28
66962;HTU21D;53897;51.126;5.868;2023-04-06T00:26:09;22.96;38.27
66962;HTU21D;53897;51.126;5.868;2023-04-06T00:28:37;22.95;38.25
66962;HTU21D;53897;51.126;5.868;2023-04-06T00:31:03;22.94;38.24
66962;HTU21D;53897;51.126;5.868;2023-04-06T00:33:29;22.92;38.20
66962;HTU21D;53897;51.126;5.868;2023-04-06T00:35:54;22.91;38.22
66962;HTU21D;53897;51.126;5.868;2023-04-06T00:38:21;22.91;38.17
66962;HTU21D;53897;51.126;5.868;2023-04-06T00:40:47;22.88;38.17
66962;HTU21D;53897;51.126;5.868;2023-04-06T00:43:13;22.87;38.15
66962;HTU21D;53897;51.126;5.868;2023-04-06T00:45:40;22.87;38.11
66962;HTU21D;53897;51.126;5.868;2023-04-06T00:48:08;22.85;38.08
66962;HTU21D;53897;51.126;5.868;2023-04-06T00:50:33;22.84;38.05
66962;HTU21D;53897;51.126;5.868;2023-04-06T00:52:59;22.84;38.01
66962;HTU21D;53897;51.126;5.868;2023-04-06T00:55:27;22.81;37.98
66962;HTU21D;53897;51.126;5.868;2023-04-06T00:57:55;22.80;37.98
66962;HTU21D;53897;51.126;5.868;2023-04-06T01:00:22;22.80;37.95
66962;HTU21D;53897;51.126;5.868;2023-04-06T01:02:53;22.78;37.93
66962;HTU21D;53897;51.126;5.868;2023-04-06T01:05:22;22.77;37.91
66962;HTU21D;53897;51.126;5.868;2023-04-06T01:07:52;22.76;37.89
66962;HTU21D;53897;51.126;5.868;2023-04-06T01:10:27;22.76;37.87
66962;HTU21D;53897;51.126;5.868;2023-04-06T01:13:00;22.75;37.84
66962;HTU21D;53897;51.126;5.868;2023-04-06T01:15:42;22.72;37.82
66962;HTU21D;53897;51.126;5.868;2023-04-06T01:18:10;22.70;37.85
66962;HTU21D;53897;51.126;5.868;2023-04-06T01:20:40;22.70;37.87
66962;HTU21D;53897;51.126;5.868;2023-04-06T01:23:07;22.68;37.87
66962;HTU21D;53897;51.126;5.868;2023-04-06T01:25:34;22.67;37.82
66962;HTU21D;53897;51.126;5.868;2023-04-06T01:28:05;22.66;37.80
66962;HTU21D;53897;51.126;5.868;2023-04-06T01:30:52;22.64;37.78
66962;HTU21D;53897;51.126;5.868;2023-04-06T01:33:38;22.64;37.74
66962;HTU21D;53897;51.126;5.868;2023-04-06T01:36:08;22.62;37.72
66962;HTU21D;53897;51.126;5.868;2023-04-06T01:38:33;22.61;37.70
66962;HTU21D;53897;51.126;5.868;2023-04-06T01:41:00;22.60;37.70
66962;HTU21D;53897;51.126;5.868;2023-04-06T01:43:31;22.58;37.69
66962;HTU21D;53897;51.126;5.868;2023-04-06T01:46:04;22.56;37.62
66962;HTU21D;53897;51.126;5.868;2023-04-06T01:48:33;22.56;37.62
66962;HTU21D;53897;51.126;5.868;2023-04-06T01:51:04;22.55;37.62
66962;HTU21D;53897;51.126;5.868;2023-04-06T01:53:34;22.54;37.59
66962;HTU21D;53897;51.126;5.868;2023-04-06T01:56:04;22.53;37.58
66962;HTU21D;53897;51.126;5.868;2023-04-06T01:58:38;22.51;37.53
66962;HTU21D;53897;51.126;5.868;2023-04-06T02:01:03;22.50;37.53
66962;HTU21D;53897;51.126;5.868;2023-04-06T02:03:37;22.49;37.51
66962;HTU21D;53897;51.126;5.868;2023-04-06T02:06:08;22.47;37.47
66962;HTU21D;53897;51.126;5.868;2023-04-06T02:08:38;22.46;37.46
66962;HTU21D;53897;51.126;5.868;2023-04-06T02:11:04;22.47;37.47
66962;HTU21D;53897;51.126;5.868;2023-04-06T02:13:35;22.44;37.43
66962;HTU21D;53897;51.126;5.868;2023-04-06T02:16:01;22.43;37.43
66962;HTU21D;53897;51.126;5.868;2023-04-06T02:18:30;22.41;37.44
66962;HTU21D;53897;51.126;5.868;2023-04-06T02:20:56;22.42;37.46
66962;HTU21D;53897;51.126;5.868;2023-04-06T02:23:22;22.40;37.41
66962;HTU21D;53897;51.126;5.868;2023-04-06T02:25:48;22.40;37.41
66962;HTU21D;53897;51.126;5.868;2023-04-06T02:28:13;22.38;37.39
66962;HTU21D;53897;51.126;5.868;2023-04-06T02:30:39;22.38;37.36
66962;HTU21D;53897;51.126;5.868;2023-04-06T02:33:05;22.36;37.33
66962;HTU21D;53897;51.126;5.868;2023-04-06T02:35:38;22.34;37.33
66962;HTU21D;53897;51.126;5.868;2023-04-06T02:38:04;22.35;37.32
66962;HTU21D;53897;51.126;5.868;2023-04-06T02:40:30;22.32;37.32
66962;HTU21D;53897;51.126;5.868;2023-04-06T02:42:59;22.31;37.30
66962;HTU21D;53897;51.126;5.868;2023-04-06T02:45:30;22.29;37.27
66962;HTU21D;53897;51.126;5.868;2023-04-06T02:47:55;22.27;37.27
66962;HTU21D;53897;51.126;5.868;2023-04-06T02:50:22;22.28;37.30
66962;HTU21D;53897;51.126;5.868;2023-04-06T02:52:55;22.27;37.26
66962;HTU21D;53897;51.126;5.868;2023-04-06T02:55:22;22.25;37.25
66962;HTU21D;53897;51.126;5.868;2023-04-06T02:57:47;22.24;37.25
66962;HTU21D;53897;51.126;5.868;2023-04-06T03:00:13;22.23;37.24
66962;HTU21D;53897;51.126;5.868;2023-04-06T03:02:40;22.22;37.22
66962;HTU21D;53897;51.126;5.868;2023-04-06T03:05:09;22.21;37.21
66962;HTU21D;53897;51.126;5.868;2023-04-06T03:07:39;22.21;37.17
66962;HTU21D;53897;51.126;5.868;2023-04-06T03:10:09;22.21;37.13
66962;HTU21D;53897;51.126;5.868;2023-04-06T03:12:35;22.19;37.08
66962;HTU21D;53897;51.126;5.868;2023-04-06T03:15:16;22.19;37.11
66962;HTU21D;53897;51.126;5.868;2023-04-06T03:17:47;22.17;37.10
66962;HTU21D;53897;51.126;5.868;2023-04-06T03:20:28;22.16;37.09
66962;HTU21D;53897;51.126;5.868;2023-04-06T03:22:54;22.14;37.09
66962;HTU21D;53897;51.126;5.868;2023-04-06T03:25:24;22.12;37.08
66962;HTU21D;53897;51.126;5.868;2023-04-06T03:27:50;22.12;37.11
66962;HTU21D;53897;51.126;5.868;2023-04-06T03:30:19;22.11;37.07
66962;HTU21D;53897;51.126;5.868;2023-04-06T03:32:45;22.10;37.08
66962;HTU21D;53897;51.126;5.868;2023-04-06T03:35:10;22.08;37.04
66962;HTU21D;53897;51.126;5.868;2023-04-06T03:37:36;22.08;36.98
66962;HTU21D;53897;51.126;5.868;2023-04-06T03:40:03;22.07;37.01
66962;HTU21D;53897;51.126;5.868;2023-04-06T03:42:30;22.06;37.01
66962;HTU21D;53897;51.126;5.868;2023-04-06T03:45:01;22.06;36.99
66962;HTU21D;53897;51.126;5.868;2023-04-06T03:47:26;22.05;36.95
66962;HTU21D;53897;51.126;5.868;2023-04-06T03:49:56;22.05;36.95
66962;HTU21D;53897;51.126;5.868;2023-04-06T03:52:22;22.04;36.90
66962;HTU21D;53897;51.126;5.868;2023-04-06T03:54:50;22.03;36.86
66962;HTU21D;53897;51.126;5.868;2023-04-06T03:57:16;22.01;36.92
66962;HTU21D;53897;51.126;5.868;2023-04-06T03:59:41;21.99;36.87
66962;HTU21D;53897;51.126;5.868;2023-04-06T04:02:07;21.98;36.85
66962;HTU21D;53897;51.126;5.868;2023-04-06T04:04:33;21.97;36.92
66962;HTU21D;53897;51.126;5.868;2023-04-06T04:06:58;21.97;36.90
66962;HTU21D;53897;51.126;5.868;2023-04-06T04:09:24;21.95;36.85
66962;HTU21D;53897;51.126;5.868;2023-04-06T04:11:50;21.96;36.79
66962;HTU21D;53897;51.126;5.868;2023-04-06T04:14:16;21.94;36.76
66962;HTU21D;53897;51.126;5.868;2023-04-06T04:16:41;21.93;36.56
66962;HTU21D;53897;51.126;5.868;2023-04-06T04:19:09;21.91;36.68
66962;HTU21D;53897;51.126;5.868;2023-04-06T04:21:45;21.87;36.80
66962;HTU21D;53897;51.126;5.868;2023-04-06T04:24:13;21.83;36.89
66962;HTU21D;53897;51.126;5.868;2023-04-06T04:26:39;21.81;36.95
66962;HTU21D;53897;51.126;5.868;2023-04-06T04:29:06;21.82;37.03
66962;HTU21D;53897;51.126;5.868;2023-04-06T04:31:32;21.80;37.06
66962;HTU21D;53897;51.126;5.868;2023-04-06T04:34:01;21.80;37.06
66962;HTU21D;53897;51.126;5.868;2023-04-06T04:36:30;21.79;37.08
66962;HTU21D;53897;51.126;5.868;2023-04-06T04:38:59;21.80;37.09
66962;HTU21D;53897;51.126;5.868;2023-04-06T04:41:28;21.80;37.13
66962;HTU21D;53897;51.126;5.868;2023-04-06T04:43:54;21.80;37.12
66962;HTU21D;53897;51.126;5.868;2023-04-06T04:46:22;21.78;37.13
66962;HTU21D;53897;51.126;5.868;2023-04-06T04:48:48;21.77;37.17
66962;HTU21D;53897;51.126;5.868;2023-04-06T04:51:15;21.76;37.16
66962;HTU21D;53897;51.126;5.868;2023-04-06T04:53:53;21.76;37.17
66962;HTU21D;53897;51.126;5.868;2023-04-06T04:56:23;21.76;37.17
66962;HTU21D;53897;51.126;5.868;2023-04-06T04:58:54;21.77;37.19
66962;HTU21D;53897;51.126;5.868;2023-04-06T05:01:21;21.76;37.22
66962;HTU21D;53897;51.126;5.868;2023-04-06T05:03:46;21.76;37.26
66962;HTU21D;53897;51.126;5.868;2023-04-06T05:06:14;21.78;37.30
66962;HTU21D;53897;51.126;5.868;2023-04-06T05:08:41;21.80;37.37
66962;HTU21D;53897;51.126;5.868;2023-04-06T05:11:08;21.81;37.34
66962;HTU21D;53897;51.126;5.868;2023-04-06T05:13:38;21.82;37.37
66962;HTU21D;53897;51.126;5.868;2023-04-06T05:16:10;21.85;37.43
66962;HTU21D;53897;51.126;5.868;2023-04-06T05:18:37;21.87;37.41
66962;HTU21D;53897;51.126;5.868;2023-04-06T05:21:04;21.84;37.72
66962;HTU21D;53897;51.126;5.868;2023-04-06T05:23:38;21.80;38.02
66962;HTU21D;53897;51.126;5.868;2023-04-06T05:26:03;21.80;38.22
66962;HTU21D;53897;51.126;5.868;2023-04-06T05:28:32;21.81;38.14
66962;HTU21D;53897;51.126;5.868;2023-04-06T05:30:58;21.82;38.19
66962;HTU21D;53897;51.126;5.868;2023-04-06T05:33:26;21.83;38.04
66962;HTU21D;53897;51.126;5.868;2023-04-06T05:36:00;21.84;38.17
66962;HTU21D;53897;51.126;5.868;2023-04-06T05:38:27;21.84;38.29
66962;HTU21D;53897;51.126;5.868;2023-04-06T05:40:54;21.88;38.33
66962;HTU21D;53897;51.126;5.868;2023-04-06T05:43:24;21.92;38.41
66962;HTU21D;53897;51.126;5.868;2023-04-06T05:45:53;21.94;38.48
66962;HTU21D;53897;51.126;5.868;2023-04-06T05:48:19;21.97;38.53
66962;HTU21D;53897;51.126;5.868;2023-04-06T05:50:49;22.01;38.56
66962;HTU21D;53897;51.126;5.868;2023-04-06T05:53:24;22.06;38.54
66962;HTU21D;53897;51.126;5.868;2023-04-06T05:55:54;22.10;38.53
66962;HTU21D;53897;51.126;5.868;2023-04-06T05:58:20;22.13;38.53
66962;HTU21D;53897;51.126;5.868;2023-04-06T06:00:49;22.18;38.53
66962;HTU21D;53897;51.126;5.868;2023-04-06T06:03:16;22.22;38.49
66962;HTU21D;53897;51.126;5.868;2023-04-06T06:05:47;22.26;38.49
66962;HTU21D;53897;51.126;5.868;2023-04-06T06:08:19;22.28;38.46
66962;HTU21D;53897;51.126;5.868;2023-04-06T06:10:46;22.33;38.33
66962;HTU21D;53897;51.126;5.868;2023-04-06T06:13:12;22.36;38.29
66962;HTU21D;53897;51.126;5.868;2023-04-06T06:15:38;22.38;38.17
66962;HTU21D;53897;51.126;5.868;2023-04-06T06:18:04;22.40;38.15
66962;HTU21D;53897;51.126;5.868;2023-04-06T06:20:30;22.43;38.12
66962;HTU21D;53897;51.126;5.868;2023-04-06T06:22:59;22.44;38.12
66962;HTU21D;53897;51.126;5.868;2023-04-06T06:25:25;22.48;38.08
66962;HTU21D;53897;51.126;5.868;2023-04-06T06:27:51;22.49;38.04
66962;HTU21D;53897;51.126;5.868;2023-04-06T06:30:19;22.50;38.01
66962;HTU21D;53897;51.126;5.868;2023-04-06T06:32:45;22.53;38.00
66962;HTU21D;53897;51.126;5.868;2023-04-06T06:35:10;22.52;37.95
66962;HTU21D;53897;51.126;5.868;2023-04-06T06:37:37;22.56;37.87
66962;HTU21D;53897;51.126;5.868;2023-04-06T06:40:04;22.56;37.87
66962;HTU21D;53897;51.126;5.868;2023-04-06T06:42:31;22.56;37.84
66962;HTU21D;53897;51.126;5.868;2023-04-06T06:45:25;22.55;37.83
66962;HTU21D;53897;51.126;5.868;2023-04-06T06:47:51;22.54;37.91
66962;HTU21D;53897;51.126;5.868;2023-04-06T06:50:17;22.52;37.99
66962;HTU21D;53897;51.126;5.868;2023-04-06T06:52:44;22.51;38.08
66962;HTU21D;53897;51.126;5.868;2023-04-06T06:55:10;22.49;38.18
66962;HTU21D;53897;51.126;5.868;2023-04-06T06:57:37;22.49;38.25
66962;HTU21D;53897;51.126;5.868;2023-04-06T07:00:05;22.50;38.20
66962;HTU21D;53897;51.126;5.868;2023-04-06T07:02:36;22.50;38.20
66962;HTU21D;53897;51.126;5.868;2023-04-06T07:05:02;22.52;38.16
66962;HTU21D;53897;51.126;5.868;2023-04-06T07:07:31;22.55;38.08
66962;HTU21D;53897;51.126;5.868;2023-04-06T07:09:59;22.57;38.04
66962;HTU21D;53897;51.126;5.868;2023-04-06T07:12:25;22.60;37.91
66962;HTU21D;53897;51.126;5.868;2023-04-06T07:14:51;22.62;37.87
66962;HTU21D;53897;51.126;5.868;2023-04-06T07:17:17;22.63;37.66
66962;HTU21D;53897;51.126;5.868;2023-04-06T07:19:42;22.64;37.58
66962;HTU21D;53897;51.126;5.868;2023-04-06T07:22:08;22.65;37.53
66962;HTU21D;53897;51.126;5.868;2023-04-06T07:24:34;22.66;37.46
66962;HTU21D;53897;51.126;5.868;2023-04-06T07:27:00;22.67;37.50
66962;HTU21D;53897;51.126;5.868;2023-04-06T07:29:27;22.68;37.61
66962;HTU21D;53897;51.126;5.868;2023-04-06T07:31:53;22.69;37.52
66962;HTU21D;53897;51.126;5.868;2023-04-06T07:34:20;22.69;37.38
66962;HTU21D;53897;51.126;5.868;2023-04-06T07:36:46;22.69;37.28
66962;HTU21D;53897;51.126;5.868;2023-04-06T07:39:12;22.69;37.21
66962;HTU21D;53897;51.126;5.868;2023-04-06T07:41:39;22.69;37.17
66962;HTU21D;53897;51.126;5.868;2023-04-06T07:44:05;22.69;37.09
66962;HTU21D;53897;51.126;5.868;2023-04-06T07:46:31;22.70;37.06
66962;HTU21D;53897;51.126;5.868;2023-04-06T07:48:58;22.70;37.07
66962;HTU21D;53897;51.126;5.868;2023-04-06T07:51:26;22.71;36.92
66962;HTU21D;53897;51.126;5.868;2023-04-06T07:53:52;22.71;36.99
66962;HTU21D;53897;51.126;5.868;2023-04-06T07:56:18;22.71;36.93
66962;HTU21D;53897;51.126;5.868;2023-04-06T07:58:44;22.72;36.88
66962;HTU21D;53897;51.126;5.868;2023-04-06T08:01:10;22.71;36.78
66962;HTU21D;53897;51.126;5.868;2023-04-06T08:03:36;22.72;36.79
66962;HTU21D;53897;51.126;5.868;2023-04-06T08:06:02;22.72;36.81
66962;HTU21D;53897;51.126;5.868;2023-04-06T08:08:28;22.75;36.82
66962;HTU21D;53897;51.126;5.868;2023-04-06T08:10:54;22.73;36.84
66962;HTU21D;53897;51.126;5.868;2023-04-06T08:13:20;22.75;36.74
66962;HTU21D;53897;51.126;5.868;2023-04-06T08:15:46;22.75;36.76
66962;HTU21D;53897;51.126;5.868;2023-04-06T08:18:12;22.75;36.86
66962;HTU21D;53897;51.126;5.868;2023-04-06T08:20:39;22.76;36.78
66962;HTU21D;53897;51.126;5.868;2023-04-06T08:23:05;22.77;36.78
66962;HTU21D;53897;51.126;5.868;2023-04-06T08:25:34;22.77;36.77
66962;HTU21D;53897;51.126;5.868;2023-04-06T08:28:01;22.77;36.74
66962;HTU21D;53897;51.126;5.868;2023-04-06T08:30:26;22.77;36.82
66962;HTU21D;53897;51.126;5.868;2023-04-06T08:32:52;22.77;36.92
66962;HTU21D;53897;51.126;5.868;2023-04-06T08:35:18;22.77;36.95
66962;HTU21D;53897;51.126;5.868;2023-04-06T08:37:44;22.78;37.01
66962;HTU21D;53897;51.126;5.868;2023-04-06T08:40:12;22.79;36.95
66962;HTU21D;53897;51.126;5.868;2023-04-06T08:42:40;22.79;36.92
66962;HTU21D;53897;51.126;5.868;2023-04-06T08:45:10;22.80;36.88
66962;HTU21D;53897;51.126;5.868;2023-04-06T08:47:36;22.80;36.88
66962;HTU21D;53897;51.126;5.868;2023-04-06T08:50:06;22.80;36.87
66962;HTU21D;53897;51.126;5.868;2023-04-06T08:52:33;22.81;36.79
66962;HTU21D;53897;51.126;5.868;2023-04-06T08:55:00;22.82;36.80
66962;HTU21D;53897;51.126;5.868;2023-04-06T08:57:27;22.82;36.82
66962;HTU21D;53897;51.126;5.868;2023-04-06T08:59:54;22.82;36.80
66962;HTU21D;53897;51.126;5.868;2023-04-06T09:02:21;22.82;36.83
66962;HTU21D;53897;51.126;5.868;2023-04-06T09:04:48;22.82;36.86
66962;HTU21D;53897;51.126;5.868;2023-04-06T09:07:15;22.83;36.88
66962;HTU21D;53897;51.126;5.868;2023-04-06T09:09:42;22.85;36.86
66962;HTU21D;53897;51.126;5.868;2023-04-06T09:12:29;22.85;36.83
66962;HTU21D;53897;51.126;5.868;2023-04-06T09:14:56;22.85;36.87
66962;HTU21D;53897;51.126;5.868;2023-04-06T09:17:25;22.85;36.85
66962;HTU21D;53897;51.126;5.868;2023-04-06T09:19:52;22.86;36.87
66962;HTU21D;53897;51.126;5.868;2023-04-06T09:22:18;22.87;36.86
66962;HTU21D;53897;51.126;5.868;2023-04-06T09:24:46;22.87;36.85
66962;HTU21D;53897;51.126;5.868;2023-04-06T09:27:13;22.87;36.82
66962;HTU21D;53897;51.126;5.868;2023-04-06T09:29:43;22.87;36.72
66962;HTU21D;53897;51.126;5.868;2023-04-06T09:32:10;22.86;36.76
66962;HTU21D;53897;51.126;5.868;2023-04-06T09:34:38;22.88;36.81
66962;HTU21D;53897;51.126;5.868;2023-04-06T09:37:18;22.88;36.82
66962;HTU21D;53897;51.126;5.868;2023-04-06T09:39:45;22.88;36.82
66962;HTU21D;53897;51.126;5.868;2023-04-06T09:42:24;22.87;36.76
66962;HTU21D;53897;51.126;5.868;2023-04-06T09:44:51;22.90;36.79
66962;HTU21D;53897;51.126;5.868;2023-04-06T09:47:16;22.90;36.81
66962;HTU21D;53897;51.126;5.868;2023-04-06T09:49:44;22.91;36.73
66962;HTU21D;53897;51.126;5.868;2023-04-06T09:52:12;22.90;36.76
66962;HTU21D;53897;51.126;5.868;2023-04-06T09:54:38;22.88;36.81
66962;HTU21D;53897;51.126;5.868;2023-04-06T09:57:13;22.88;36.92
66962;HTU21D;53897;51.126;5.868;2023-04-06T10:02:51;22.92;37.18
66962;HTU21D;53897;51.126;5.868;2023-04-06T10:07:57;22.93;37.20
66962;HTU21D;53897;51.126;5.868;2023-04-06T10:10:23;22.93;37.20
66962;HTU21D;53897;51.126;5.868;2023-04-06T10:12:49;22.94;37.25
66962;HTU21D;53897;51.126;5.868;2023-04-06T10:15:16;22.94;37.26
66962;HTU21D;53897;51.126;5.868;2023-04-06T10:17:43;22.95;37.26
66962;HTU21D;53897;51.126;5.868;2023-04-06T10:20:14;22.94;37.25
66962;HTU21D;53897;51.126;5.868;2023-04-06T10:22:55;22.94;37.21
66962;HTU21D;53897;51.126;5.868;2023-04-06T10:25:32;22.94;37.26
66962;HTU21D;53897;51.126;5.868;2023-04-06T10:28:04;22.94;37.28
66962;HTU21D;53897;51.126;5.868;2023-04-06T10:30:30;22.95;37.25
66962;HTU21D;53897;51.126;5.868;2023-04-06T10:32:56;22.96;37.22
66962;HTU21D;53897;51.126;5.868;2023-04-06T10:35:22;22.96;37.21
66962;HTU21D;53897;51.126;5.868;2023-04-06T10:38:03;22.97;37.21
66962;HTU21D;53897;51.126;5.868;2023-04-06T10:40:28;22.98;37.19
66962;HTU21D;53897;51.126;5.868;2023-04-06T10:43:25;22.98;37.17
66962;HTU21D;53897;51.126;5.868;2023-04-06T10:45:56;22.98;37.17
66962;HTU21D;53897;51.126;5.868;2023-04-06T10:48:22;23.00;37.12
66962;HTU21D;53897;51.126;5.868;2023-04-06T10:50:51;22.99;37.11
66962;HTU21D;53897;51.126;5.868;2023-04-06T10:53:25;22.99;37.11
66962;HTU21D;53897;51.126;5.868;2023-04-06T10:55:54;23.00;37.08
66962;HTU21D;53897;51.126;5.868;2023-04-06T10:58:20;22.99;37.07
66962;HTU21D;53897;51.126;5.868;2023-04-06T11:00:49;23.00;37.01
66962;HTU21D;53897;51.126;5.868;2023-04-06T11:03:17;23.01;36.98
66962;HTU21D;53897;51.126;5.868;2023-04-06T11:05:44;23.01;36.99
66962;HTU21D;53897;51.126;5.868;2023-04-06T11:08:21;23.01;36.90
66962;HTU21D;53897;51.126;5.868;2023-04-06T11:10:47;23.01;36.78
66962;HTU21D;53897;51.126;5.868;2023-04-06T11:13:15;23.00;36.80
66962;HTU21D;53897;51.126;5.868;2023-04-06T11:15:40;22.99;36.70
66962;HTU21D;53897;51.126;5.868;2023-04-06T11:18:06;23.00;36.72
66962;HTU21D;53897;51.126;5.868;2023-04-06T11:20:32;22.99;36.62
66962;HTU21D;53897;51.126;5.868;2023-04-06T11:22:57;23.00;36.49
66962;HTU21D;53897;51.126;5.868;2023-04-06T11:25:24;22.98;36.50
66962;HTU21D;53897;51.126;5.868;2023-04-06T11:27:51;22.97;36.57
66962;HTU21D;53897;51.126;5.868;2023-04-06T11:30:17;22.98;36.59
66962;HTU21D;53897;51.126;5.868;2023-04-06T11:32:45;22.97;36.59
66962;HTU21D;53897;51.126;5.868;2023-04-06T11:35:21;22.98;36.62
66962;HTU21D;53897;51.126;5.868;2023-04-06T11:37:51;22.98;36.63
66962;HTU21D;53897;51.126;5.868;2023-04-06T11:40:23;22.98;36.62
66962;HTU21D;53897;51.126;5.868;2023-04-06T11:42:54;22.97;36.66
66962;HTU21D;53897;51.126;5.868;2023-04-06T11:45:21;22.97;36.66
66962;HTU21D;53897;51.126;5.868;2023-04-06T11:47:59;22.97;36.65
66962;HTU21D;53897;51.126;5.868;2023-04-06T11:50:32;22.97;36.64
66962;HTU21D;53897;51.126;5.868;2023-04-06T11:53:01;22.97;36.67
66962;HTU21D;53897;51.126;5.868;2023-04-06T11:55:27;22.97;36.70
66962;HTU21D;53897;51.126;5.868;2023-04-06T11:57:53;22.98;36.72
66962;HTU21D;53897;51.126;5.868;2023-04-06T12:00:19;22.97;36.76
66962;HTU21D;53897;51.126;5.868;2023-04-06T12:02:47;22.97;36.79
66962;HTU21D;53897;51.126;5.868;2023-04-06T12:05:13;22.97;36.82
66962;HTU21D;53897;51.126;5.868;2023-04-06T12:07:39;22.99;36.82
66962;HTU21D;53897;51.126;5.868;2023-04-06T12:10:05;22.99;36.83
66962;HTU21D;53897;51.126;5.868;2023-04-06T12:12:31;23.00;36.88
66962;HTU21D;53897;51.126;5.868;2023-04-06T12:14:58;22.98;36.84
66962;HTU21D;53897;51.126;5.868;2023-04-06T12:17:24;22.98;36.84
66962;HTU21D;53897;51.126;5.868;2023-04-06T12:19:50;22.97;36.83
66962;HTU21D;53897;51.126;5.868;2023-04-06T12:22:18;22.94;37.00
66962;HTU21D;53897;51.126;5.868;2023-04-06T12:24:43;22.90;37.17
66962;HTU21D;53897;51.126;5.868;2023-04-06T12:27:09;22.85;37.32
66962;HTU21D;53897;51.126;5.868;2023-04-06T12:29:37;22.85;37.40
66962;HTU21D;53897;51.126;5.868;2023-04-06T12:32:03;22.87;37.40
66962;HTU21D;53897;51.126;5.868;2023-04-06T12:34:30;22.86;37.46
66962;HTU21D;53897;51.126;5.868;2023-04-06T12:36:55;22.84;37.62
66962;HTU21D;53897;51.126;5.868;2023-04-06T12:39:22;22.83;37.71
66962;HTU21D;53897;51.126;5.868;2023-04-06T12:41:48;22.83;37.80
66962;HTU21D;53897;51.126;5.868;2023-04-06T12:44:13;22.81;37.87
66962;HTU21D;53897;51.126;5.868;2023-04-06T12:46:39;22.78;37.98
66962;HTU21D;53897;51.126;5.868;2023-04-06T12:49:05;22.77;38.12
66962;HTU21D;53897;51.126;5.868;2023-04-06T12:51:30;22.78;38.20
66962;HTU21D;53897;51.126;5.868;2023-04-06T12:53:59;22.81;38.24
66962;HTU21D;53897;51.126;5.868;2023-04-06T12:56:24;22.85;38.25
66962;HTU21D;53897;51.126;5.868;2023-04-06T12:58:51;22.86;38.22
66962;HTU21D;53897;51.126;5.868;2023-04-06T13:01:17;22.88;38.25
66962;HTU21D;53897;51.126;5.868;2023-04-06T13:03:43;22.92;38.26
66962;HTU21D;53897;51.126;5.868;2023-04-06T13:06:10;22.94;38.19
66962;HTU21D;53897;51.126;5.868;2023-04-06T13:08:37;22.95;38.14
66962;HTU21D;53897;51.126;5.868;2023-04-06T13:11:04;22.96;38.12
66962;HTU21D;53897;51.126;5.868;2023-04-06T13:13:31;22.97;38.07
66962;HTU21D;53897;51.126;5.868;2023-04-06T13:16:02;22.98;38.02
66962;HTU21D;53897;51.126;5.868;2023-04-06T13:18:29;22.97;37.98
66962;HTU21D;53897;51.126;5.868;2023-04-06T13:20:56;22.99;37.93
66962;HTU21D;53897;51.126;5.868;2023-04-06T13:23:23;23.00;37.92
66962;HTU21D;53897;51.126;5.868;2023-04-06T13:25:57;23.01;37.89
66962;HTU21D;53897;51.126;5.868;2023-04-06T13:28:23;23.00;37.87
66962;HTU21D;53897;51.126;5.868;2023-04-06T13:30:49;23.02;37.83
66962;HTU21D;53897;51.126;5.868;2023-04-06T13:33:14;23.02;37.81
66962;HTU21D;53897;51.126;5.868;2023-04-06T13:35:44;23.03;37.79
66962;HTU21D;53897;51.126;5.868;2023-04-06T13:38:10;23.02;37.78
66962;HTU21D;53897;51.126;5.868;2023-04-06T13:40:38;23.03;37.75
66962;HTU21D;53897;51.126;5.868;2023-04-06T13:43:05;23.03;37.73
66962;HTU21D;53897;51.126;5.868;2023-04-06T13:45:31;23.02;37.70
66962;HTU21D;53897;51.126;5.868;2023-04-06T13:47:56;23.03;37.69
66962;HTU21D;53897;51.126;5.868;2023-04-06T13:50:22;23.03;37.67
66962;HTU21D;53897;51.126;5.868;2023-04-06T13:52:47;23.03;37.66
66962;HTU21D;53897;51.126;5.868;2023-04-06T13:55:14;23.03;37.66
66962;HTU21D;53897;51.126;5.868;2023-04-06T13:57:41;23.03;37.66
66962;HTU21D;53897;51.126;5.868;2023-04-06T14:00:07;23.05;37.66
66962;HTU21D;53897;51.126;5.868;2023-04-06T14:02:34;23.02;37.66
66962;HTU21D;53897;51.126;5.868;2023-04-06T14:05:00;23.02;37.71
66962;HTU21D;53897;51.126;5.868;2023-04-06T14:07:25;23.02;37.66
66962;HTU21D;53897;51.126;5.868;2023-04-06T14:09:51;23.01;37.75
66962;HTU21D;53897;51.126;5.868;2023-04-06T14:12:17;22.97;37.86
66962;HTU21D;53897;51.126;5.868;2023-04-06T14:14:42;22.94;37.98
66962;HTU21D;53897;51.126;5.868;2023-04-06T14:17:08;22.88;38.11
66962;HTU21D;53897;51.126;5.868;2023-04-06T14:19:35;22.87;38.21
66962;HTU21D;53897;51.126;5.868;2023-04-06T14:22:01;22.90;38.20
66962;HTU21D;53897;51.126;5.868;2023-04-06T14:24:27;22.91;38.19
66962;HTU21D;53897;51.126;5.868;2023-04-06T14:26:53;22.93;38.12
66962;HTU21D;53897;51.126;5.868;2023-04-06T14:29:18;22.93;38.13
66962;HTU21D;53897;51.126;5.868;2023-04-06T14:31:48;22.95;38.08
66962;HTU21D;53897;51.126;5.868;2023-04-06T14:34:14;22.94;38.08
66962;HTU21D;53897;51.126;5.868;2023-04-06T14:36:41;22.96;38.04
66962;HTU21D;53897;51.126;5.868;2023-04-06T14:39:07;22.98;38.01
66962;HTU21D;53897;51.126;5.868;2023-04-06T14:41:34;22.97;37.98
66962;HTU21D;53897;51.126;5.868;2023-04-06T14:44:00;22.98;37.96
66962;HTU21D;53897;51.126;5.868;2023-04-06T14:46:27;22.98;37.92
66962;HTU21D;53897;51.126;5.868;2023-04-06T14:48:56;22.98;37.89
66962;HTU21D;53897;51.126;5.868;2023-04-06T14:51:25;22.97;37.87
66962;HTU21D;53897;51.126;5.868;2023-04-06T14:53:53;22.97;37.82
66962;HTU21D;53897;51.126;5.868;2023-04-06T14:56:23;22.96;37.77
66962;HTU21D;53897;51.126;5.868;2023-04-06T14:58:50;22.95;37.73
66962;HTU21D;53897;51.126;5.868;2023-04-06T15:01:18;22.95;37.74
66962;HTU21D;53897;51.126;5.868;2023-04-06T15:03:43;22.94;37.81
66962;HTU21D;53897;51.126;5.868;2023-04-06T15:06:13;22.94;37.88
66962;HTU21D;53897;51.126;5.868;2023-04-06T15:08:44;22.95;37.97
66962;HTU21D;53897;51.126;5.868;2023-04-06T15:11:11;22.95;38.31
66962;HTU21D;53897;51.126;5.868;2023-04-06T15:13:39;22.94;38.68
66962;HTU21D;53897;51.126;5.868;2023-04-06T15:16:05;22.94;38.62
66962;HTU21D;53897;51.126;5.868;2023-04-06T15:18:32;22.95;38.62
66962;HTU21D;53897;51.126;5.868;2023-04-06T15:20:58;22.95;38.56
66962;HTU21D;53897;51.126;5.868;2023-04-06T15:23:24;22.95;38.44
66962;HTU21D;53897;51.126;5.868;2023-04-06T15:25:50;22.95;38.36